createdAt,value
2023-02-07T00:01:41.402Z,29.42
2023-02-07T00:04:11.271Z,37.30
2023-02-07T00:06:39.663Z,32.72
2023-02-07T00:09:09.847Z,34.58
2023-02-07T00:11:41.000Z,38.03
2023-02-07T00:14:11.745Z,37.53
2023-02-07T00:16:40.568Z,38.78
2023-02-07T00:19:10.524Z,34.67
2023-02-07T00:21:39.150Z,37.20
2023-02-07T00:24:08.612Z,33.35
2023-02-07T00:26:37.209Z,28.67
2023-02-07T00:29:05.822Z,41.13
2023-02-07T00:31:36.419Z,32.83
2023-02-07T00:36:37.984Z,25.40
2023-02-07T00:39:11.550Z,29.98
2023-02-07T00:41:40.261Z,32.17
2023-02-07T00:44:08.983Z,28.83
2023-02-07T00:46:37.689Z,31.98
2023-02-07T00:49:07.568Z,37.05
2023-02-07T00:51:37.431Z,31.17
2023-02-07T00:54:06.184Z,25.90
2023-02-07T00:56:35.040Z,28.80
2023-02-07T00:59:03.798Z,35.80
2023-02-07T01:01:32.408Z,33.40
2023-02-07T01:04:00.907Z,30.23
2023-02-07T01:06:33.522Z,31.40
2023-02-07T01:09:04.984Z,27.73
2023-02-07T01:11:33.772Z,28.65
2023-02-07T01:14:02.622Z,30.75
2023-02-07T01:16:33.990Z,23.38
2023-02-07T01:19:05.561Z,20.20
2023-02-07T01:21:33.945Z,30.58
2023-02-07T01:24:03.691Z,32.70
2023-02-07T01:26:32.012Z,32.63
2023-02-07T01:29:00.783Z,25.70
2023-02-07T01:31:29.736Z,37.33
2023-02-07T01:34:01.013Z,31.10
2023-02-07T01:36:30.863Z,28.60
2023-02-07T01:38:59.332Z,38.93
2023-02-07T01:41:29.348Z,24.38
2023-02-07T01:44:01.791Z,29.13
2023-02-07T01:46:32.273Z,28.70
2023-02-07T01:49:06.329Z,27.73
2023-02-07T01:51:36.247Z,35.42
2023-02-07T01:54:09.713Z,38.58
2023-02-07T01:56:46.546Z,39.70
2023-02-07T01:59:16.740Z,37.63
2023-02-07T02:01:46.467Z,32.60
2023-02-07T02:04:14.976Z,43.20
2023-02-07T02:06:44.765Z,40.08
2023-02-07T02:09:15.951Z,39.42
2023-02-07T02:12:11.340Z,34.42
2023-02-07T02:15:09.003Z,35.45
2023-02-07T02:17:57.217Z,33.58
2023-02-07T02:21:19.234Z,33.53
2023-02-07T02:24:38.577Z,45.73
2023-02-07T02:27:18.302Z,37.43
2023-02-07T02:30:33.971Z,38.28
2023-02-07T02:33:43.532Z,34.43
2023-02-07T02:36:23.494Z,35.30
2023-02-07T02:39:00.567Z,31.52
2023-02-07T02:41:36.737Z,32.90
2023-02-07T02:44:12.920Z,32.57
2023-02-07T02:46:42.599Z,38.30
2023-02-07T02:49:16.666Z,38.40
2023-02-07T02:51:45.017Z,32.50
2023-02-07T02:54:33.476Z,34.38
2023-02-07T02:57:44.917Z,30.85
2023-02-07T03:00:30.238Z,37.53
2023-02-07T03:03:21.310Z,33.83
2023-02-07T03:06:04.456Z,36.45
2023-02-07T03:08:42.294Z,36.15
2023-02-07T03:11:15.836Z,30.85
2023-02-07T03:14:01.150Z,31.38
2023-02-07T03:16:37.297Z,27.42
2023-02-07T03:19:11.192Z,31.73
2023-02-07T03:21:46.328Z,34.03
2023-02-07T03:24:18.733Z,31.85
2023-02-07T03:26:52.518Z,29.42
2023-02-07T03:29:24.039Z,35.15
2023-02-07T03:31:57.920Z,30.55
2023-02-07T03:34:31.035Z,32.20
2023-02-07T03:37:05.771Z,31.90
2023-02-07T03:39:34.962Z,40.20
2023-02-07T03:42:09.001Z,37.20
2023-02-07T03:44:39.354Z,33.55
2023-02-07T03:47:07.732Z,36.30
2023-02-07T03:49:36.021Z,30.57
2023-02-07T03:52:06.097Z,30.93
2023-02-07T03:54:34.446Z,31.48
2023-02-07T03:57:02.779Z,34.27
2023-02-07T03:59:31.269Z,35.63
2023-02-07T04:01:59.593Z,30.37
2023-02-07T04:04:27.984Z,38.53
2023-02-07T04:06:56.373Z,27.73
2023-02-07T04:09:27.856Z,30.33
2023-02-07T04:11:56.166Z,33.35
2023-02-07T04:14:24.581Z,33.63
2023-02-07T04:16:52.856Z,36.75
2023-02-07T04:19:21.336Z,34.55
2023-02-07T04:21:49.738Z,33.92
2023-02-07T04:24:18.396Z,36.42
2023-02-07T04:26:48.099Z,39.97
2023-02-07T04:29:16.649Z,35.20
2023-02-07T04:31:44.996Z,41.13
2023-02-07T04:34:13.328Z,43.17
2023-02-07T04:36:41.842Z,34.42
2023-02-07T04:39:10.376Z,44.78
2023-02-07T04:41:39.427Z,38.78
2023-02-07T04:44:09.114Z,36.75
2023-02-07T04:46:37.506Z,41.38
2023-02-07T04:49:05.923Z,38.72
2023-02-07T04:51:34.623Z,36.10
2023-02-07T04:54:02.907Z,35.43
2023-02-07T04:56:31.232Z,38.90
2023-02-07T04:58:59.567Z,39.23
2023-02-07T05:01:29.403Z,42.88
2023-02-07T05:03:57.828Z,40.83
2023-02-07T05:06:26.162Z,39.00
2023-02-07T05:08:54.535Z,47.22
2023-02-07T05:11:22.844Z,39.42
2023-02-07T05:13:51.356Z,39.67
2023-02-07T05:16:19.715Z,43.47
2023-02-07T05:18:49.387Z,43.42
2023-02-07T05:21:17.684Z,37.78
2023-02-07T05:23:46.008Z,36.58
2023-02-07T05:26:14.900Z,38.67
2023-02-07T05:28:43.207Z,39.17
2023-02-07T05:31:11.662Z,40.47
2023-02-07T05:33:39.206Z,41.37
2023-02-07T05:36:10.724Z,38.50
2023-02-07T05:38:39.030Z,43.55
2023-02-07T05:41:07.424Z,46.37
2023-02-07T05:43:35.741Z,44.33
2023-02-07T05:46:04.224Z,39.58
2023-02-07T05:48:32.541Z,35.50
2023-02-07T05:51:00.769Z,51.55
2023-02-07T05:53:30.441Z,39.85
2023-02-07T05:55:58.731Z,36.95
2023-02-07T05:58:27.105Z,43.45
2023-02-07T06:00:56.591Z,43.80
2023-02-07T06:03:24.888Z,42.30
2023-02-07T06:05:53.203Z,39.35
2023-02-07T06:08:21.735Z,43.13
2023-02-07T06:10:51.466Z,48.38
2023-02-07T06:13:19.766Z,39.72
2023-02-07T06:15:49.142Z,44.27
2023-02-07T06:18:17.556Z,46.15
2023-02-07T06:20:45.916Z,40.87
2023-02-07T06:23:14.167Z,45.27
2023-02-07T06:25:43.083Z,43.57
2023-02-07T06:28:12.893Z,37.97
2023-02-07T06:30:41.401Z,49.17
2023-02-07T06:33:09.843Z,48.10
2023-02-07T06:35:38.422Z,43.63
2023-02-07T06:38:06.937Z,48.37
2023-02-07T06:40:35.243Z,53.07
2023-02-07T06:43:03.540Z,45.28
2023-02-07T06:45:33.264Z,44.72
2023-02-07T06:48:01.588Z,42.50
2023-02-07T06:50:30.074Z,52.70
2023-02-07T06:53:01.878Z,47.00
2023-02-07T06:55:31.379Z,59.73
2023-02-07T06:57:59.815Z,58.20
2023-02-07T07:00:28.358Z,56.83
2023-02-07T07:03:00.221Z,50.57
2023-02-07T07:05:29.261Z,54.20
2023-02-07T07:07:57.700Z,60.77
2023-02-07T07:10:26.141Z,63.90
2023-02-07T07:12:54.425Z,62.17
2023-02-07T07:15:22.853Z,70.80
2023-02-07T07:17:51.135Z,166.47
2023-02-07T07:20:21.257Z,102.83
2023-02-07T07:22:50.282Z,131.48
2023-02-07T07:25:18.830Z,212.60
2023-02-07T07:27:47.582Z,155.30
2023-02-07T07:30:16.316Z,200.57
2023-02-07T07:32:44.653Z,134.93
2023-02-07T07:35:12.936Z,71.50
2023-02-07T07:37:42.834Z,226.47
2023-02-07T07:40:12.782Z,177.80
2023-02-07T07:42:41.361Z,75.72
2023-02-07T07:45:30.000Z,319.30
2023-02-07T07:47:58.311Z,251.63
2023-02-07T07:50:26.708Z,148.80
2023-02-07T07:52:56.437Z,160.67
2023-02-07T07:55:26.407Z,81.95
2023-02-07T07:57:54.933Z,249.07
2023-02-07T08:00:23.218Z,244.30
2023-02-07T08:02:51.644Z,81.43
2023-02-07T08:05:20.274Z,256.80
2023-02-07T08:07:48.620Z,94.97
2023-02-07T08:10:18.432Z,134.30
2023-02-07T08:12:46.845Z,102.82
2023-02-07T08:15:15.323Z,113.27
2023-02-07T08:17:43.658Z,55.80
2023-02-07T08:20:12.883Z,125.93
2023-02-07T08:22:41.609Z,93.77
2023-02-07T08:25:10.750Z,65.50
2023-02-07T08:27:40.677Z,65.73
2023-02-07T08:30:12.433Z,264.77
2023-02-07T08:32:41.150Z,89.27
2023-02-07T08:35:10.548Z,118.47
2023-02-07T08:37:39.744Z,85.72
2023-02-07T08:40:09.761Z,108.37
2023-02-07T08:42:39.559Z,102.55
2023-02-07T08:45:09.149Z,97.13
2023-02-07T08:47:37.537Z,120.93
2023-02-07T08:50:07.680Z,168.30
2023-02-07T08:52:36.242Z,113.45
2023-02-07T08:55:05.180Z,342.23
2023-02-07T08:57:33.535Z,110.73
2023-02-07T09:00:04.099Z,151.40
2023-02-07T09:02:32.444Z,179.13
2023-02-07T09:05:00.750Z,172.63
2023-02-07T09:07:29.032Z,198.70
2023-02-07T09:09:57.416Z,131.43
2023-02-07T09:12:25.707Z,196.70
2023-02-07T09:14:53.982Z,141.77
2023-02-07T09:17:23.714Z,168.27
2023-02-07T09:19:52.026Z,130.43
2023-02-07T09:22:20.550Z,133.13
2023-02-07T09:24:49.189Z,107.07
2023-02-07T09:27:17.508Z,151.90
2023-02-07T09:29:46.090Z,138.00
2023-02-07T09:32:14.524Z,265.67
2023-02-07T09:34:44.384Z,160.47
2023-02-07T09:37:12.843Z,198.35
2023-02-07T09:39:42.717Z,173.00
2023-02-07T09:42:25.565Z,159.43
2023-02-07T09:44:59.035Z,107.47
2023-02-07T09:47:28.257Z,111.07
2023-02-07T09:50:03.345Z,98.23
2023-02-07T09:52:37.314Z,86.10
2023-02-07T09:55:07.488Z,109.77
2023-02-07T09:57:44.095Z,88.85
2023-02-07T10:00:24.688Z,96.00
2023-02-07T10:05:41.740Z,86.57
2023-02-07T10:08:14.238Z,87.40
2023-02-07T10:10:47.559Z,85.27
2023-02-07T10:13:37.246Z,90.47
2023-02-07T10:16:25.450Z,88.83
2023-02-07T10:19:01.167Z,77.83
2023-02-07T10:21:38.816Z,83.37
2023-02-07T10:24:25.577Z,77.40
2023-02-07T10:26:56.277Z,78.70
2023-02-07T10:29:42.612Z,77.60
2023-02-07T10:32:16.967Z,66.68
2023-02-07T10:34:50.075Z,66.90
2023-02-07T10:37:23.424Z,68.47
2023-02-07T10:40:03.320Z,72.15
2023-02-07T10:42:35.523Z,62.03
2023-02-07T10:45:04.052Z,63.25
2023-02-07T10:47:39.754Z,63.55
2023-02-07T10:50:18.486Z,61.42
2023-02-07T10:52:54.720Z,55.03
2023-02-07T10:55:40.229Z,59.10
2023-02-07T10:58:22.437Z,60.35
2023-02-07T11:00:53.788Z,58.38
2023-02-07T11:03:23.706Z,63.83
2023-02-07T11:05:58.593Z,57.53
2023-02-07T11:08:30.918Z,65.18
2023-02-07T11:11:01.279Z,58.63
2023-02-07T11:13:32.624Z,56.25
2023-02-07T11:16:06.146Z,55.65
2023-02-07T11:18:45.241Z,61.20
2023-02-07T11:21:27.238Z,57.78
2023-02-07T11:24:02.305Z,62.33
2023-02-07T11:26:31.905Z,60.13
2023-02-07T11:29:08.363Z,58.00
2023-02-07T11:31:39.068Z,62.65
2023-02-07T11:36:40.738Z,58.95
2023-02-07T11:39:19.502Z,63.10
2023-02-07T11:41:56.940Z,67.57
2023-02-07T11:44:28.472Z,67.78
2023-02-07T11:47:04.924Z,69.63
2023-02-07T11:49:44.116Z,63.83
2023-02-07T11:52:13.333Z,69.65
2023-02-07T11:54:50.555Z,68.90
2023-02-07T11:57:20.364Z,67.85
2023-02-07T11:59:55.633Z,65.82
2023-02-07T12:02:26.939Z,63.13
2023-02-07T12:04:56.676Z,63.92
2023-02-07T12:07:31.308Z,62.60
2023-02-07T12:10:03.005Z,63.45
2023-02-07T12:12:40.326Z,60.92
2023-02-07T12:15:16.193Z,60.80
2023-02-07T12:17:58.780Z,58.55
2023-02-07T12:20:29.604Z,58.75
2023-02-07T12:23:31.431Z,59.10
2023-02-07T12:26:01.378Z,59.22
2023-02-07T12:28:36.344Z,57.97
2023-02-07T12:31:16.641Z,54.97
2023-02-07T12:33:54.168Z,53.22
2023-02-07T12:36:29.055Z,56.85
2023-02-07T12:39:04.600Z,58.60
2023-02-07T12:41:40.910Z,49.10
2023-02-07T12:44:23.656Z,54.40
2023-02-07T12:47:02.377Z,55.30
2023-02-07T12:50:03.815Z,50.33
2023-02-07T12:52:45.256Z,50.85
2023-02-07T12:55:27.558Z,50.33
2023-02-07T12:58:08.676Z,43.85
2023-02-07T13:00:56.685Z,41.33
2023-02-07T13:03:56.958Z,40.97
2023-02-07T13:06:33.852Z,46.15
2023-02-07T13:09:09.117Z,45.55
2023-02-07T13:11:47.538Z,43.47
2023-02-07T13:14:30.408Z,44.53
2023-02-07T13:17:36.131Z,42.97
2023-02-07T13:20:28.434Z,43.95
2023-02-07T13:23:01.093Z,44.97
2023-02-07T13:25:33.461Z,46.60
2023-02-07T13:28:09.421Z,52.97
2023-02-07T13:30:39.637Z,45.80
2023-02-07T13:33:29.649Z,45.78
2023-02-07T13:36:04.832Z,50.33
2023-02-07T13:38:51.964Z,40.47
2023-02-07T13:41:33.952Z,40.08
2023-02-07T13:44:12.426Z,40.38
2023-02-07T13:47:01.991Z,40.75
2023-02-07T13:49:43.780Z,40.92
2023-02-07T13:52:20.049Z,45.47
2023-02-07T13:54:59.304Z,44.63
2023-02-07T13:58:00.713Z,40.38
2023-02-07T14:00:31.921Z,41.97
2023-02-07T14:03:04.059Z,45.13
2023-02-07T14:05:35.996Z,41.65
2023-02-07T14:08:06.647Z,43.97
2023-02-07T14:13:32.019Z,44.20
2023-02-07T14:16:05.553Z,43.67
2023-02-07T14:18:50.624Z,47.15
2023-02-07T14:21:39.961Z,45.35
2023-02-07T14:24:33.075Z,46.55
2023-02-07T14:27:06.846Z,42.13
2023-02-07T14:30:15.963Z,45.65
2023-02-07T14:33:09.754Z,39.65
2023-02-07T14:35:46.875Z,36.97
2023-02-07T14:38:30.529Z,45.35
2023-02-07T14:41:11.049Z,42.88
2023-02-07T14:44:09.250Z,43.35
2023-02-07T14:46:41.589Z,44.67
2023-02-07T14:49:18.250Z,44.95
2023-02-07T14:51:50.908Z,42.88
2023-02-07T14:54:27.718Z,41.28
2023-02-07T14:57:07.799Z,37.15
2023-02-07T14:59:41.547Z,40.05
2023-02-07T15:02:34.874Z,38.42
2023-02-07T15:05:22.808Z,38.40
2023-02-07T15:08:07.713Z,36.22
2023-02-07T15:10:41.911Z,33.72
2023-02-07T15:13:24.139Z,35.78
2023-02-07T15:15:56.828Z,29.33
2023-02-07T15:18:30.077Z,26.20
2023-02-07T15:20:59.396Z,25.77
2023-02-07T15:23:31.856Z,23.75
2023-02-07T15:26:06.363Z,24.00
2023-02-07T15:28:35.018Z,27.60
2023-02-07T15:31:06.503Z,24.73
2023-02-07T15:33:40.258Z,21.40
2023-02-07T15:36:30.263Z,23.50
2023-02-07T15:39:02.352Z,20.85
2023-02-07T15:41:31.470Z,28.75
2023-02-07T15:44:03.031Z,28.15
2023-02-07T15:46:47.238Z,29.75
2023-02-07T15:49:32.628Z,31.40
2023-02-07T15:52:15.040Z,34.60
2023-02-07T15:54:49.798Z,38.95
2023-02-07T15:57:25.711Z,37.53
2023-02-07T15:59:56.642Z,37.90
2023-02-07T16:02:29.820Z,34.80
2023-02-07T16:04:58.908Z,37.15
2023-02-07T16:07:27.252Z,37.40
2023-02-07T16:09:57.303Z,33.72
2023-02-07T16:12:45.329Z,38.45
2023-02-07T16:15:29.332Z,36.47
2023-02-07T16:17:57.946Z,37.00
2023-02-07T16:20:28.155Z,34.58
2023-02-07T16:23:00.124Z,34.50
2023-02-07T16:25:32.564Z,32.10
2023-02-07T16:28:02.662Z,37.40
2023-02-07T16:30:34.992Z,33.90
2023-02-07T16:33:06.202Z,32.80
2023-02-07T16:35:34.717Z,30.15
2023-02-07T16:38:03.001Z,29.73
2023-02-07T16:40:32.861Z,32.78
2023-02-07T16:43:03.738Z,28.60
2023-02-07T16:45:32.615Z,30.77
2023-02-07T16:48:01.888Z,34.33
2023-02-07T16:50:32.363Z,28.55
2023-02-07T16:53:00.719Z,31.60
2023-02-07T16:55:30.258Z,27.92
2023-02-07T16:58:00.081Z,27.35
2023-02-07T17:00:28.513Z,29.52
2023-02-07T17:02:56.950Z,28.10
2023-02-07T17:05:25.779Z,27.48
2023-02-07T17:07:54.082Z,25.70
2023-02-07T17:10:26.870Z,29.88
2023-02-07T17:12:55.356Z,27.38
2023-02-07T17:15:25.300Z,27.52
2023-02-07T17:17:53.861Z,26.02
2023-02-07T17:20:25.805Z,29.27
2023-02-07T17:22:54.900Z,27.20
2023-02-07T17:25:26.344Z,26.92
2023-02-07T17:27:54.695Z,28.33
2023-02-07T17:30:27.538Z,31.48
2023-02-07T17:32:57.670Z,30.02
2023-02-07T17:35:26.081Z,25.73
2023-02-07T17:37:54.577Z,27.30
2023-02-07T17:40:31.244Z,26.90
2023-02-07T17:43:00.165Z,26.05
2023-02-07T17:45:31.493Z,31.65
2023-02-07T17:47:59.921Z,30.33
2023-02-07T17:50:32.274Z,25.60
2023-02-07T17:53:01.942Z,25.50
2023-02-07T17:55:31.409Z,30.47
2023-02-07T17:58:00.389Z,25.85
2023-02-07T18:00:33.063Z,27.67
2023-02-07T18:03:01.379Z,27.80
2023-02-07T18:05:30.031Z,30.58
2023-02-07T18:07:58.464Z,28.27
2023-02-07T18:10:29.878Z,28.08
2023-02-07T18:12:59.192Z,28.52
2023-02-07T18:15:30.512Z,28.23
2023-02-07T18:17:59.296Z,27.02
2023-02-07T18:20:29.896Z,28.17
2023-02-07T18:25:29.613Z,28.63
2023-02-07T18:30:32.746Z,26.17
2023-02-07T18:33:01.476Z,31.60
2023-02-07T18:35:29.814Z,30.30
2023-02-07T18:37:58.075Z,28.83
2023-02-07T18:40:26.367Z,28.23
2023-02-07T18:42:55.170Z,30.35
2023-02-07T18:45:23.538Z,28.75
2023-02-07T18:47:53.260Z,30.05
2023-02-07T18:50:22.577Z,27.70
2023-02-07T18:52:50.825Z,29.15
2023-02-07T18:55:19.709Z,29.45
2023-02-07T18:57:48.100Z,29.20
2023-02-07T19:00:17.043Z,29.57
2023-02-07T19:02:45.859Z,32.15
2023-02-07T19:05:15.613Z,32.80
2023-02-07T19:07:44.042Z,34.03
2023-02-07T19:10:12.542Z,34.43
2023-02-07T19:12:41.204Z,31.63
2023-02-07T19:15:10.773Z,33.13
2023-02-07T19:17:39.182Z,39.07
2023-02-07T19:20:08.691Z,36.15
2023-02-07T19:22:38.479Z,34.00
2023-02-07T19:25:08.098Z,33.72
2023-02-07T19:27:36.624Z,33.40
2023-02-07T19:30:07.907Z,29.10
2023-02-07T19:32:36.371Z,34.85
2023-02-07T19:35:04.740Z,36.03
2023-02-07T19:37:33.072Z,32.87
2023-02-07T19:40:02.699Z,31.93
2023-02-07T19:42:30.993Z,30.57
2023-02-07T19:44:59.319Z,33.23
2023-02-07T19:47:27.747Z,32.10
2023-02-07T19:49:56.048Z,34.37
2023-02-07T19:52:24.622Z,28.03
2023-02-07T19:54:55.008Z,34.13
2023-02-07T19:57:25.623Z,35.57
2023-02-07T19:59:53.952Z,31.83
2023-02-07T20:02:22.203Z,28.15
2023-02-07T20:04:54.549Z,29.88
2023-02-07T20:07:22.950Z,31.15
2023-02-07T20:09:51.563Z,36.47
2023-02-07T20:12:20.102Z,36.38
2023-02-07T20:14:49.838Z,33.20
2023-02-07T20:17:18.130Z,30.73
2023-02-07T20:19:46.554Z,27.58
2023-02-07T20:22:15.119Z,29.60
2023-02-07T20:24:43.659Z,31.17
2023-02-07T20:27:12.063Z,28.67
2023-02-07T20:29:40.453Z,31.10
2023-02-07T20:32:12.710Z,33.65
2023-02-07T20:34:41.620Z,33.08
2023-02-07T20:37:11.098Z,34.75
2023-02-07T20:39:39.834Z,34.53
2023-02-07T20:42:08.198Z,34.63
2023-02-07T20:44:36.607Z,39.92
2023-02-07T20:47:05.406Z,34.13
2023-02-07T20:49:35.146Z,36.03
2023-02-07T20:52:03.732Z,33.72
2023-02-07T20:54:32.767Z,33.88
2023-02-07T20:57:01.130Z,32.85
2023-02-07T20:59:33.117Z,34.67
2023-02-07T21:02:02.479Z,39.70
2023-02-07T21:04:31.518Z,33.35
2023-02-07T21:07:01.625Z,36.15
2023-02-07T21:09:31.035Z,34.17
2023-02-07T21:11:59.458Z,32.63
2023-02-07T21:14:30.573Z,34.60
2023-02-07T21:17:02.316Z,33.33
2023-02-07T21:19:30.740Z,33.63
2023-02-07T21:22:00.409Z,32.70
2023-02-07T21:24:29.097Z,34.35
2023-02-07T21:26:58.393Z,35.10
2023-02-07T21:29:27.873Z,36.03
2023-02-07T21:31:56.466Z,35.25
2023-02-07T21:34:25.619Z,29.95
2023-02-07T21:36:54.194Z,32.45
2023-02-07T21:39:24.918Z,31.55
2023-02-07T21:41:53.549Z,31.33
2023-02-07T21:44:22.231Z,30.35
2023-02-07T21:46:51.474Z,30.88
2023-02-07T21:49:21.841Z,28.92
2023-02-07T21:51:54.041Z,30.75
2023-02-07T21:54:23.739Z,31.90
2023-02-07T21:56:52.290Z,30.73
2023-02-07T21:59:22.454Z,32.33
2023-02-07T22:01:51.323Z,32.88
2023-02-07T22:04:19.848Z,31.42
2023-02-07T22:06:49.297Z,31.63
2023-02-07T22:09:20.487Z,36.40
2023-02-07T22:11:50.712Z,34.40
2023-02-07T22:14:19.532Z,34.50
2023-02-07T22:16:52.341Z,33.43
2023-02-07T22:19:22.319Z,33.40
2023-02-07T22:21:51.683Z,32.53
2023-02-07T22:24:21.162Z,30.23
2023-02-07T22:26:50.951Z,27.75
2023-02-07T22:29:19.297Z,32.05
2023-02-07T22:31:47.909Z,27.50
2023-02-07T22:34:16.629Z,27.03
2023-02-07T22:36:46.170Z,26.73
2023-02-07T22:39:17.115Z,27.15
2023-02-07T22:41:46.629Z,26.53
2023-02-07T22:44:16.544Z,25.73
2023-02-07T22:46:44.936Z,31.88
2023-02-07T22:49:13.348Z,27.97
2023-02-07T22:51:41.867Z,29.87
2023-02-07T22:54:16.583Z,32.87
2023-02-07T22:56:46.281Z,31.73
2023-02-07T22:59:16.061Z,29.75
2023-02-07T23:01:45.970Z,32.20
2023-02-07T23:04:18.226Z,31.88
2023-02-07T23:06:47.346Z,30.83
2023-02-07T23:09:16.362Z,32.17
2023-02-07T23:11:44.733Z,30.17
2023-02-07T23:14:13.499Z,30.77
2023-02-07T23:16:44.126Z,29.37
2023-02-07T23:19:16.225Z,30.47
2023-02-07T23:21:44.908Z,28.73
2023-02-07T23:24:13.622Z,27.37
2023-02-07T23:26:42.301Z,28.90
2023-02-07T23:29:10.946Z,31.73
2023-02-07T23:31:39.502Z,34.23
2023-02-07T23:34:10.364Z,32.80
2023-02-07T23:36:39.072Z,33.03
2023-02-07T23:39:07.686Z,26.50
2023-02-07T23:41:36.336Z,31.10
2023-02-07T23:44:05.831Z,30.37
2023-02-07T23:46:34.943Z,35.67
2023-02-07T23:49:03.893Z,35.17
2023-02-07T23:51:33.748Z,34.63
2023-02-07T23:54:02.774Z,36.08
2023-02-07T23:56:31.156Z,42.50
2023-02-07T23:58:59.439Z,38.97
